Time;durP1;ratioP1;P1;durP2;ratioP2;P2;SDS_P1;SDS_P2;PMS_P1;PMS_P2;Temp;Humidity;BMP_temperature;BMP_pressure;BME280_temperature;BME280_humidity;BME280_pressure;Samples;Min_cycle;Max_cycle;Signal;HPM_P1;HPM_P2
2022/03/17 00:01:06;;;;;;;5.87;2.20;;;;;;;;;;5007881;28;20279;-67
2022/03/17 00:03:33;;;;;;;3.60;2.40;;;;;;;;;;5003505;28;20196;-66
2022/03/17 00:06:00;;;;;;;5.00;2.40;;;;;;;;;;5003034;28;20584;-66
2022/03/17 00:08:27;;;;;;;4.20;2.33;;;;;;;;;;5023834;28;20247;-67
2022/03/17 00:10:53;;;;;;;3.53;2.20;;;;;;;;;;5010475;28;20189;-66
2022/03/17 00:13:20;;;;;;;4.27;2.00;;;;;;;;;;5006844;28;20216;-66
2022/03/17 00:15:47;;;;;;;4.67;2.47;;;;;;;;;;5009394;28;20257;-67
2022/03/17 00:18:13;;;;;;;4.33;2.60;;;;;;;;;;5008092;28;20626;-67
2022/03/17 00:20:40;;;;;;;6.73;2.33;;;;;;;;;;5023803;28;20208;-67
2022/03/17 00:23:06;;;;;;;4.27;2.03;;;;;;;;;;5010037;28;20197;-67
2022/03/17 00:25:34;;;;;;;5.03;2.30;;;;;;;;;;5008258;28;20240;-66
2022/03/17 00:28:00;;;;;;;3.47;2.63;;;;;;;;;;4991597;28;20646;-67
2022/03/17 00:30:27;;;;;;;3.80;2.60;;;;;;;;;;5009147;28;20247;-67
2022/03/17 00:32:53;;;;;;;3.87;2.20;;;;;;;;;;5008030;28;20658;-67
2022/03/17 00:35:35;;;;;;;3.93;2.07;;;;;;;;;;4991726;28;20191;-67
2022/03/17 00:38:08;;;;;;;2.97;2.00;;;;;;;;;;5024261;28;20200;-67
2022/03/17 00:40:40;;;;;;;6.90;2.30;;;;;;;;;;5008801;28;20224;-67
2022/03/17 00:43:12;;;;;;;6.63;2.30;;;;;;;;;;5024388;28;20196;-67
2022/03/17 00:45:40;;;;;;;3.33;2.27;;;;;;;;;;5023893;28;20818;-67
2022/03/17 00:48:06;;;;;;;7.37;2.40;;;;;;;;;;5008796;28;20195;-67
2022/03/17 00:50:34;;;;;;;4.37;2.30;;;;;;;;;;5008514;28;20266;-67
2022/03/17 00:53:01;;;;;;;3.37;2.00;;;;;;;;;;5009192;28;20208;-67
2022/03/17 00:55:28;;;;;;;3.93;2.33;;;;;;;;;;5007391;28;20196;-66
2022/03/17 00:57:55;;;;;;;5.17;2.27;;;;;;;;;;5009229;28;20577;-66
2022/03/17 01:00:21;;;;;;;5.83;2.40;;;;;;;;;;5007581;28;20224;-67
2022/03/17 01:02:51;;;;;;;4.80;2.37;;;;;;;;;;5008769;28;20535;-67
2022/03/17 01:05:20;;;;;;;4.47;2.43;;;;;;;;;;4997747;28;20711;-67
2022/03/17 01:07:47;;;;;;;5.90;2.50;;;;;;;;;;5008100;28;20279;-67
2022/03/17 01:10:17;;;;;;;2.70;2.10;;;;;;;;;;5007950;28;20212;-67
2022/03/17 01:12:46;;;;;;;4.00;2.60;;;;;;;;;;5005946;28;20196;-67
2022/03/17 01:15:14;;;;;;;4.67;2.13;;;;;;;;;;5005060;28;20600;-67
2022/03/17 01:17:40;;;;;;;5.20;2.47;;;;;;;;;;5022873;28;20200;-67
2022/03/17 01:20:07;;;;;;;5.50;2.20;;;;;;;;;;5024050;28;20212;-68
2022/03/17 01:22:34;;;;;;;5.87;2.27;;;;;;;;;;4990260;28;20272;-67
2022/03/17 01:25:02;;;;;;;4.80;2.70;;;;;;;;;;5007671;28;20215;-67
2022/03/17 01:27:29;;;;;;;4.73;2.20;;;;;;;;;;5005065;28;20192;-67
2022/03/17 01:29:56;;;;;;;6.77;2.87;;;;;;;;;;4990834;28;20615;-67
2022/03/17 01:32:25;;;;;;;9.17;2.50;;;;;;;;;;5005700;28;20193;-67
2022/03/17 01:34:52;;;;;;;4.10;2.63;;;;;;;;;;5006918;28;20189;-66
2022/03/17 01:37:18;;;;;;;5.23;2.77;;;;;;;;;;5006857;28;20204;-67
2022/03/17 01:39:45;;;;;;;4.40;2.70;;;;;;;;;;5006898;28;20220;-67
2022/03/17 01:42:11;;;;;;;5.47;2.40;;;;;;;;;;5006653;28;20201;-67
2022/03/17 01:44:40;;;;;;;3.87;2.30;;;;;;;;;;5006597;28;20185;-67
2022/03/17 01:49:53;;;;;;;7.20;2.73;;;;;;;;;;5008079;28;20218;-67
2022/03/17 01:52:20;;;;;;;4.43;2.53;;;;;;;;;;5020687;28;20243;-67
2022/03/17 01:54:46;;;;;;;5.50;2.50;;;;;;;;;;5008145;28;20181;-67
2022/03/17 01:57:13;;;;;;;3.67;2.63;;;;;;;;;;5007783;28;20554;-67
2022/03/17 01:59:41;;;;;;;3.67;2.33;;;;;;;;;;5007242;28;20228;-67
2022/03/17 02:02:10;;;;;;;3.70;2.47;;;;;;;;;;5007165;28;20197;-67
2022/03/17 02:04:37;;;;;;;6.60;2.77;;;;;;;;;;5023459;28;20300;-67
2022/03/17 02:07:05;;;;;;;4.20;2.40;;;;;;;;;;5007658;28;20197;-67
2022/03/17 02:09:36;;;;;;;5.90;2.17;;;;;;;;;;5005801;28;20196;-67
2022/03/17 02:14:58;;;;;;;3.03;2.20;;;;;;;;;;5006097;28;20720;-67
2022/03/17 02:17:27;;;;;;;5.53;2.50;;;;;;;;;;5007364;28;20209;-67
2022/03/17 02:19:54;;;;;;;5.50;2.80;;;;;;;;;;5006928;28;20307;-67
2022/03/17 02:22:22;;;;;;;5.80;2.50;;;;;;;;;;5006555;28;20189;-66
2022/03/17 02:27:42;;;;;;;8.77;2.80;;;;;;;;;;5023157;28;20188;-67
2022/03/17 02:30:11;;;;;;;5.67;2.57;;;;;;;;;;5010356;28;20199;-67
2022/03/17 02:32:39;;;;;;;5.63;3.17;;;;;;;;;;5026471;28;20216;-67
2022/03/17 02:35:11;;;;;;;3.50;2.77;;;;;;;;;;5008050;28;20859;-67
2022/03/17 02:37:38;;;;;;;5.70;2.80;;;;;;;;;;5005752;28;20217;-67
2022/03/17 02:40:08;;;;;;;4.57;2.90;;;;;;;;;;5010421;28;20213;-67
2022/03/17 02:42:37;;;;;;;7.23;2.40;;;;;;;;;;5011008;28;20267;-67
2022/03/17 02:45:06;;;;;;;8.10;2.90;;;;;;;;;;5011271;28;20215;-67
2022/03/17 02:47:33;;;;;;;3.80;2.40;;;;;;;;;;5008229;28;20232;-67
2022/03/17 02:50:00;;;;;;;4.17;2.50;;;;;;;;;;5009859;28;20193;-66
2022/03/17 02:52:29;;;;;;;4.07;2.43;;;;;;;;;;5007644;28;20260;-67
2022/03/17 02:54:56;;;;;;;2.53;2.30;;;;;;;;;;5011215;28;20662;-67
2022/03/17 02:57:23;;;;;;;3.73;2.33;;;;;;;;;;5010558;28;20195;-67
2022/03/17 02:59:51;;;;;;;6.47;2.70;;;;;;;;;;5010912;28;20217;-67
2022/03/17 03:02:19;;;;;;;7.10;2.50;;;;;;;;;;5009455;28;20262;-67
2022/03/17 03:04:46;;;;;;;5.27;2.80;;;;;;;;;;5009355;28;20526;-67
2022/03/17 03:07:12;;;;;;;4.13;2.63;;;;;;;;;;5008771;28;20949;-67
2022/03/17 03:09:39;;;;;;;6.07;2.97;;;;;;;;;;5026248;28;20264;-67
2022/03/17 03:12:06;;;;;;;3.90;2.80;;;;;;;;;;5025964;28;20215;-67
2022/03/17 03:14:33;;;;;;;6.33;2.80;;;;;;;;;;5008860;28;20193;-67
2022/03/17 03:17:00;;;;;;;5.33;2.83;;;;;;;;;;5007660;28;20197;-67
2022/03/17 03:19:27;;;;;;;4.73;2.93;;;;;;;;;;5010245;28;20219;-67
2022/03/17 03:21:53;;;;;;;5.47;3.33;;;;;;;;;;5009022;28;20193;-67
2022/03/17 03:24:20;;;;;;;3.97;2.93;;;;;;;;;;5009908;28;20212;-67
2022/03/17 03:26:46;;;;;;;5.17;3.30;;;;;;;;;;5010489;28;20216;-67
2022/03/17 03:31:43;;;;;;;3.43;2.83;;;;;;;;;;5007961;28;20189;-67
2022/03/17 03:34:09;;;;;;;7.80;3.07;;;;;;;;;;5009416;28;20331;-67
2022/03/17 03:39:21;;;;;;;5.40;2.93;;;;;;;;;;5008884;28;20205;-67
2022/03/17 03:41:47;;;;;;;4.20;2.80;;;;;;;;;;5010490;28;20930;-67
2022/03/17 03:44:14;;;;;;;6.20;3.67;;;;;;;;;;5010565;28;20251;-67
2022/03/17 03:46:44;;;;;;;8.67;2.70;;;;;;;;;;5009134;28;20220;-67
2022/03/17 03:49:10;;;;;;;5.97;3.10;;;;;;;;;;5009310;28;20193;-67
2022/03/17 03:51:37;;;;;;;11.80;3.80;;;;;;;;;;5007095;28;20197;-67
2022/03/17 03:54:13;;;;;;;4.07;3.03;;;;;;;;;;5015304;28;20208;-67
2022/03/17 03:56:55;;;;;;;5.80;3.20;;;;;;;;;;5008878;28;20215;-67
2022/03/17 03:59:25;;;;;;;5.63;3.27;;;;;;;;;;5003912;28;20806;-67
2022/03/17 04:01:54;;;;;;;9.43;3.33;;;;;;;;;;5005065;28;20685;-67
2022/03/17 04:04:21;;;;;;;6.00;3.10;;;;;;;;;;5010407;28;20193;-67
2022/03/17 04:06:50;;;;;;;9.07;3.13;;;;;;;;;;5009093;28;20204;-67
2022/03/17 04:09:19;;;;;;;5.70;3.20;;;;;;;;;;5010241;28;20189;-67
2022/03/17 04:11:46;;;;;;;8.40;3.43;;;;;;;;;;5006436;28;20786;-67
2022/03/17 04:14:14;;;;;;;4.17;3.07;;;;;;;;;;5009564;28;20241;-67
2022/03/17 04:16:41;;;;;;;5.37;3.00;;;;;;;;;;5007753;28;20292;-67
2022/03/17 04:19:09;;;;;;;6.67;3.37;;;;;;;;;;5009179;28;20200;-67
2022/03/17 04:21:36;;;;;;;5.07;3.20;;;;;;;;;;5009104;28;20216;-68
2022/03/17 04:24:03;;;;;;;4.40;3.07;;;;;;;;;;5008297;28;20191;-67
2022/03/17 04:26:29;;;;;;;5.60;3.27;;;;;;;;;;5023856;28;20231;-67
2022/03/17 04:28:56;;;;;;;7.10;3.63;;;;;;;;;;5009141;28;20203;-67
2022/03/17 04:31:23;;;;;;;4.90;3.10;;;;;;;;;;5009113;28;20283;-67
2022/03/17 04:33:50;;;;;;;9.43;3.33;;;;;;;;;;5008247;28;20197;-67
2022/03/17 04:36:18;;;;;;;10.27;3.40;;;;;;;;;;5008519;28;20213;-67
2022/03/17 04:38:45;;;;;;;5.23;3.53;;;;;;;;;;5009191;28;20200;-67
2022/03/17 04:41:12;;;;;;;5.27;3.30;;;;;;;;;;5008715;28;20212;-67
2022/03/17 04:43:39;;;;;;;5.23;3.17;;;;;;;;;;5008598;28;20649;-67
2022/03/17 04:46:08;;;;;;;4.43;3.30;;;;;;;;;;5009212;28;20280;-67
2022/03/17 04:48:36;;;;;;;5.83;3.30;;;;;;;;;;5007099;28;20907;-67
2022/03/17 04:51:03;;;;;;;8.60;3.10;;;;;;;;;;4992489;28;21019;-67
2022/03/17 04:53:31;;;;;;;8.00;3.40;;;;;;;;;;5009321;28;20982;-67
2022/03/17 04:56:04;;;;;;;5.63;3.67;;;;;;;;;;5008624;28;20625;-67
2022/03/17 04:58:33;;;;;;;7.67;3.73;;;;;;;;;;5006560;28;20551;-67
2022/03/17 05:01:03;;;;;;;7.07;3.50;;;;;;;;;;5007649;28;20231;-67
2022/03/17 05:03:30;;;;;;;6.17;3.47;;;;;;;;;;4990620;28;20235;-67
2022/03/17 05:05:57;;;;;;;4.87;2.90;;;;;;;;;;5009211;28;20216;-67
2022/03/17 05:08:24;;;;;;;4.50;3.17;;;;;;;;;;5007905;28;20622;-67
2022/03/17 05:10:52;;;;;;;4.63;3.50;;;;;;;;;;5008288;28;20838;-67
2022/03/17 05:13:20;;;;;;;5.10;3.43;;;;;;;;;;5007554;28;20199;-67
2022/03/17 05:15:47;;;;;;;4.90;3.30;;;;;;;;;;5024392;28;20634;-67
2022/03/17 05:18:14;;;;;;;8.90;3.97;;;;;;;;;;5006458;28;20223;-67
2022/03/17 05:20:41;;;;;;;6.83;3.63;;;;;;;;;;5008583;28;20216;-67
2022/03/17 05:23:10;;;;;;;5.80;3.50;;;;;;;;;;5007268;28;20189;-67
2022/03/17 05:25:38;;;;;;;7.27;3.80;;;;;;;;;;5003155;28;20564;-67
2022/03/17 05:28:06;;;;;;;6.37;3.50;;;;;;;;;;5008646;28;20197;-67
2022/03/17 05:30:32;;;;;;;10.00;3.70;;;;;;;;;;5024819;28;20291;-67
2022/03/17 05:32:59;;;;;;;7.37;3.33;;;;;;;;;;5008713;28;20192;-67
2022/03/17 05:35:26;;;;;;;4.97;3.33;;;;;;;;;;5023617;28;20526;-67
2022/03/17 05:37:53;;;;;;;6.17;3.83;;;;;;;;;;5022096;28;20197;-67
2022/03/17 05:40:21;;;;;;;5.77;3.60;;;;;;;;;;5007648;28;20689;-67
2022/03/17 05:42:56;;;;;;;5.47;3.37;;;;;;;;;;5007439;28;20763;-67
2022/03/17 05:45:26;;;;;;;5.70;3.10;;;;;;;;;;5008091;28;20214;-66
2022/03/17 05:47:56;;;;;;;4.87;3.20;;;;;;;;;;5005886;28;20239;-67
2022/03/17 05:50:25;;;;;;;5.27;3.30;;;;;;;;;;5000306;28;20294;-67
2022/03/17 05:52:52;;;;;;;7.63;3.47;;;;;;;;;;5008082;28;20203;-67
2022/03/17 05:55:22;;;;;;;7.97;3.70;;;;;;;;;;5006513;28;20638;-67
2022/03/17 05:57:50;;;;;;;6.93;3.50;;;;;;;;;;5007985;28;20569;-67
2022/03/17 06:00:23;;;;;;;5.30;3.40;;;;;;;;;;5006102;28;20834;-67
2022/03/17 06:02:51;;;;;;;8.40;3.87;;;;;;;;;;4991012;28;20553;-67
2022/03/17 06:05:18;;;;;;;5.63;3.30;;;;;;;;;;5009271;28;20254;-68
2022/03/17 06:07:49;;;;;;;4.63;3.43;;;;;;;;;;5005719;28;20196;-67
2022/03/17 06:10:23;;;;;;;5.83;3.50;;;;;;;;;;5008281;28;20185;-67
2022/03/17 06:12:51;;;;;;;5.33;3.40;;;;;;;;;;5005698;28;20189;-67
2022/03/17 06:15:19;;;;;;;9.67;3.60;;;;;;;;;;5007067;28;20247;-67
2022/03/17 06:17:48;;;;;;;10.07;3.77;;;;;;;;;;5004726;28;20196;-67
2022/03/17 06:20:20;;;;;;;5.43;3.50;;;;;;;;;;5024042;28;20221;-67
2022/03/17 06:22:52;;;;;;;7.43;3.70;;;;;;;;;;5006690;28;20195;-67
2022/03/17 06:25:21;;;;;;;4.00;3.00;;;;;;;;;;5023488;28;20195;-67
2022/03/17 06:27:49;;;;;;;5.97;3.50;;;;;;;;;;5022422;28;20200;-67
2022/03/17 06:30:18;;;;;;;6.80;3.53;;;;;;;;;;5008097;28;20700;-67
2022/03/17 06:32:45;;;;;;;7.00;3.27;;;;;;;;;;5007990;28;20214;-67
2022/03/17 06:35:17;;;;;;;4.43;3.23;;;;;;;;;;5008656;28;20280;-67
2022/03/17 06:37:51;;;;;;;5.73;3.67;;;;;;;;;;5021000;28;20227;-68
2022/03/17 06:40:18;;;;;;;4.77;3.37;;;;;;;;;;5023200;28;20676;-66
2022/03/17 06:42:46;;;;;;;6.57;3.10;;;;;;;;;;5007741;28;20201;-67
2022/03/17 06:45:15;;;;;;;4.67;2.70;;;;;;;;;;5005192;28;20193;-67
2022/03/17 06:47:42;;;;;;;6.57;3.40;;;;;;;;;;5004810;28;20236;-67
2022/03/17 06:50:10;;;;;;;7.23;3.47;;;;;;;;;;5006542;28;20188;-67
2022/03/17 06:52:37;;;;;;;4.83;3.07;;;;;;;;;;5008636;28;20185;-67
2022/03/17 06:55:04;;;;;;;6.37;3.00;;;;;;;;;;5006798;28;20728;-67
2022/03/17 06:57:31;;;;;;;5.43;3.07;;;;;;;;;;5005248;28;20239;-67
2022/03/17 06:59:57;;;;;;;4.73;3.10;;;;;;;;;;4999859;28;20209;-67
2022/03/17 07:02:24;;;;;;;5.37;3.13;;;;;;;;;;5006363;28;20196;-67
2022/03/17 07:04:53;;;;;;;6.50;3.23;;;;;;;;;;5007308;28;20189;-67
2022/03/17 07:07:20;;;;;;;5.43;3.00;;;;;;;;;;5006242;28;20207;-67
2022/03/17 07:09:46;;;;;;;4.00;3.10;;;;;;;;;;5006158;28;20208;-67
2022/03/17 07:12:13;;;;;;;7.77;3.40;;;;;;;;;;5005648;28;20181;-67
2022/03/17 07:14:40;;;;;;;6.57;3.10;;;;;;;;;;5009960;28;20193;-67
2022/03/17 07:17:07;;;;;;;4.17;3.10;;;;;;;;;;5009340;28;20693;-67
2022/03/17 07:19:35;;;;;;;3.70;3.00;;;;;;;;;;5010488;28;20279;-67
2022/03/17 07:22:02;;;;;;;6.10;3.00;;;;;;;;;;5011235;28;20193;-67
2022/03/17 07:24:29;;;;;;;4.13;2.83;;;;;;;;;;5009324;28;20719;-68
2022/03/17 07:26:58;;;;;;;4.00;2.80;;;;;;;;;;5008213;28;20189;-67
2022/03/17 07:29:25;;;;;;;4.23;2.47;;;;;;;;;;5010748;28;20201;-67
2022/03/17 07:31:56;;;;;;;5.60;2.57;;;;;;;;;;5010587;28;20283;-68
2022/03/17 07:34:24;;;;;;;3.23;2.40;;;;;;;;;;5001791;28;20197;-67
2022/03/17 07:36:51;;;;;;;4.13;2.50;;;;;;;;;;5003655;28;20217;-67
2022/03/17 07:39:18;;;;;;;3.27;2.73;;;;;;;;;;5008811;28;20189;-68
2022/03/17 07:41:44;;;;;;;3.57;2.40;;;;;;;;;;5009763;28;20199;-67
2022/03/17 07:44:12;;;;;;;5.63;2.70;;;;;;;;;;5009450;28;20204;-67
2022/03/17 07:46:40;;;;;;;5.83;2.97;;;;;;;;;;5007535;28;20751;-67
2022/03/17 07:49:08;;;;;;;4.90;2.50;;;;;;;;;;5008407;28;20203;-67
2022/03/17 07:51:36;;;;;;;2.80;2.20;;;;;;;;;;5011597;28;20274;-66
2022/03/17 07:54:03;;;;;;;3.33;2.27;;;;;;;;;;5004609;28;20192;-67
2022/03/17 07:56:30;;;;;;;3.90;2.10;;;;;;;;;;5007683;28;20720;-68
2022/03/17 07:58:57;;;;;;;3.70;2.30;;;;;;;;;;4988764;28;20284;-67
2022/03/17 08:01:25;;;;;;;4.23;2.30;;;;;;;;;;5007917;28;20223;-67
2022/03/17 08:03:54;;;;;;;3.07;2.23;;;;;;;;;;5009257;28;20266;-68
2022/03/17 08:06:22;;;;;;;5.33;2.53;;;;;;;;;;5010086;28;20311;-67
2022/03/17 08:08:49;;;;;;;3.63;2.57;;;;;;;;;;5009097;28;20397;-67
2022/03/17 08:11:16;;;;;;;3.43;2.50;;;;;;;;;;5008829;28;20300;-67
2022/03/17 08:13:42;;;;;;;9.53;2.60;;;;;;;;;;5008372;28;20212;-67
2022/03/17 08:16:10;;;;;;;3.03;2.40;;;;;;;;;;5006501;28;20481;-67
2022/03/17 08:18:38;;;;;;;4.53;2.40;;;;;;;;;;5004374;28;20224;-68
2022/03/17 08:21:05;;;;;;;5.37;2.43;;;;;;;;;;5017384;28;20233;-68
2022/03/17 08:23:32;;;;;;;4.73;2.30;;;;;;;;;;5006289;28;20243;-67
2022/03/17 08:25:59;;;;;;;5.33;2.93;;;;;;;;;;5023785;28;20547;-67
2022/03/17 08:28:26;;;;;;;4.97;2.40;;;12.10;99.90;;;;;;5006086;28;20311;-68
2022/03/17 08:30:52;;;;;;;4.53;2.37;;;12.20;99.90;;;;;;5007852;28;20621;-67
2022/03/17 08:33:19;;;;;;;7.27;2.63;;;12.20;99.90;;;;;;5021829;28;20193;-67
2022/03/17 08:35:46;;;;;;;3.63;2.67;;;12.10;99.90;;;;;;5002815;28;20213;-68
2022/03/17 08:38:13;;;;;;;5.47;2.33;;;12.20;99.90;;;;;;5010336;28;20545;-67
2022/03/17 08:40:40;;;;;;;3.93;2.50;;;12.10;99.90;;;;;;5007180;28;20225;-67
2022/03/17 08:43:09;;;;;;;3.73;2.60;;;12.10;99.90;;;;;;5008997;28;20286;-67
2022/03/17 08:51:12;;;;;;;3.53;2.30;;;12.40;99.90;;;;;;4994590;28;21872;-67
2022/03/17 08:53:39;;;;;;;4.03;2.50;;;12.50;99.90;;;;;;5009902;28;20197;-67
2022/03/17 08:56:06;;;;;;;3.40;2.00;;;12.50;99.90;;;;;;5006026;28;20188;-68
2022/03/17 08:58:35;;;;;;;3.53;2.47;;;12.60;99.90;;;;;;5004901;28;20239;-67
2022/03/17 09:01:02;;;;;;;3.43;2.50;;;12.70;99.90;;;;;;5006304;28;20310;-68
2022/03/17 09:03:30;;;;;;;7.67;2.53;;;12.70;99.90;;;;;;5005907;28;20192;-68
2022/03/17 09:06:00;;;;;;;4.30;2.70;;;12.80;99.90;;;;;;5006639;28;20200;-67
2022/03/17 09:08:28;;;;;;;3.40;2.37;;;12.90;99.90;;;;;;4986938;28;20216;-68
2022/03/17 09:10:55;;;;;;;2.93;2.43;;;12.90;99.90;;;;;;5009074;28;20315;-68
2022/03/17 09:13:28;;;;;;;2.53;2.33;;;13.00;99.90;;;;;;5008228;28;20262;-67
2022/03/17 09:15:55;;;;;;;4.47;2.63;;;13.00;99.90;;;;;;5007327;28;20204;-65
2022/03/17 09:18:22;;;;;;;4.27;2.40;;;13.00;99.90;;;;;;5006546;28;20664;-67
2022/03/17 09:20:50;;;;;;;10.10;2.27;;;12.90;99.90;;;;;;5004408;28;20244;-67
2022/03/17 09:23:17;;;;;;;2.97;2.20;;;12.80;99.90;;;;;;5009180;28;20900;-68
2022/03/17 09:25:44;;;;;;;4.93;2.30;;;12.80;99.90;;;;;;5006249;28;20288;-68
2022/03/17 09:28:12;;;;;;;6.60;2.60;;;12.80;99.90;;;;;;5007192;28;20624;-68
2022/03/17 09:30:38;;;;;;;6.17;2.53;;;12.70;99.90;;;;;;5023621;28;20276;-67
2022/03/17 09:33:05;;;;;;;3.70;2.47;;;12.70;99.90;;;;;;5018946;28;20201;-68
2022/03/17 09:35:34;;;;;;;4.57;2.33;;;12.70;99.90;;;;;;5003296;28;21942;-68
2022/03/17 09:38:02;;;;;;;2.87;2.37;;;12.80;99.90;;;;;;4985670;28;20617;-67
2022/03/17 09:40:29;;;;;;;4.90;2.50;;;12.70;99.90;;;;;;5002769;28;20228;-67
2022/03/17 09:45:45;;;;;;;4.27;2.40;;;12.50;99.90;;;;;;5008022;28;20185;-67
2022/03/17 09:48:15;;;;;;;4.93;2.93;;;12.40;99.90;;;;;;5020279;28;20208;-68
2022/03/17 09:50:47;;;;;;;6.20;2.60;;;12.40;99.90;;;;;;4989724;28;20988;-68
2022/03/17 09:53:13;;;;;;;9.33;2.63;;;12.40;99.90;;;;;;5002986;28;20198;-68
2022/03/17 09:55:43;;;;;;;3.47;2.50;;;12.40;99.90;;;;;;5006163;28;20216;-68
2022/03/17 09:58:11;;;;;;;5.07;2.40;;;12.30;99.90;;;;;;5017145;28;20323;-69
2022/03/17 10:00:49;;;;;;;7.63;2.33;;;12.30;99.90;;;;;;5009075;28;20235;-68
2022/03/17 10:03:25;;;;;;;3.20;2.50;;;12.30;99.90;;;;;;4997681;28;20234;-68
2022/03/17 10:05:54;;;;;;;3.70;2.53;;;12.40;99.90;;;;;;5021777;28;20245;-68
2022/03/17 10:08:23;;;;;;;3.50;2.40;;;12.30;99.90;;;;;;5021546;28;20304;-68
2022/03/17 10:10:52;;;;;;;3.50;2.50;;;12.20;99.90;;;;;;5002730;28;22026;-68
2022/03/17 10:13:25;;;;;;;3.83;2.73;;;12.20;99.90;;;;;;5007197;28;20200;-68
2022/03/17 10:16:22;;;;;;;4.57;2.87;;;13.10;99.90;;;;;;5006397;28;20284;-68
2022/03/17 10:19:08;;;;;;;4.83;2.93;;;12.90;99.90;;;;;;5006895;28;20283;-68
2022/03/17 10:21:36;;;;;;;6.20;2.60;;;12.90;99.90;;;;;;5020479;28;20272;-68
2022/03/17 10:24:06;;;;;;;5.13;2.70;;;13.40;99.90;;;;;;5005481;28;20247;-69
2022/03/17 10:26:49;;;;;;;5.00;2.67;;;13.50;99.90;;;;;;5005198;28;20664;-68
2022/03/17 10:29:22;;;;;;;6.90;2.50;;;13.40;99.90;;;;;;5017959;28;20192;-68
2022/03/17 10:32:05;;;;;;;3.13;2.40;;;13.10;99.90;;;;;;5021685;28;20193;-68
2022/03/17 10:34:56;;;;;;;8.80;2.70;;;12.80;99.90;;;;;;5004592;28;20319;-69
2022/03/17 10:37:25;;;;;;;5.17;2.47;;;12.70;99.90;;;;;;5006458;28;20239;-68
2022/03/17 10:39:58;;;;;;;2.77;2.10;;;12.50;99.90;;;;;;5004532;28;20224;-68
2022/03/17 10:42:27;;;;;;;4.47;2.30;;;12.40;99.90;;;;;;5005202;28;20193;-69
2022/03/17 10:45:05;;;;;;;5.07;2.30;;;12.30;99.90;;;;;;5006946;28;20283;-68
2022/03/17 10:47:37;;;;;;;4.60;2.50;;;12.20;99.90;;;;;;5021809;28;20565;-68
2022/03/17 10:50:18;;;;;;;3.23;2.43;;;12.20;99.90;;;;;;5009793;28;20224;-68
2022/03/17 10:53:00;;;;;;;7.07;2.60;;;12.20;99.90;;;;;;5025527;28;20204;-68
2022/03/17 10:55:28;;;;;;;4.90;2.70;;;12.30;99.90;;;;;;5010395;28;20521;-68
2022/03/17 10:58:11;;;;;;;5.10;2.63;;;12.30;99.90;;;;;;5006230;28;20189;-68
2022/03/17 11:00:53;;;;;;;4.03;2.60;;;12.30;99.90;;;;;;5004464;28;20259;-68
2022/03/17 11:03:22;;;;;;;6.00;2.63;;;12.40;99.90;;;;;;5024801;28;20300;-68
2022/03/17 11:05:51;;;;;;;5.80;2.80;;;12.50;99.90;;;;;;5014459;28;20268;-68
2022/03/17 11:08:21;;;;;;;5.93;2.50;;;12.50;99.90;;;;;;5016587;28;20576;-68
2022/03/17 11:10:49;;;;;;;5.97;2.40;;;12.50;99.90;;;;;;5014567;28;20216;-68
2022/03/17 11:13:15;;;;;;;4.97;2.20;;;12.50;99.90;;;;;;5026053;28;20230;-68
2022/03/17 11:16:10;;;;;;;6.13;2.50;;;12.40;99.90;;;;;;5017521;28;20188;-68
2022/03/17 11:18:40;;;;;;;4.97;2.10;;;12.50;99.90;;;;;;4996493;28;20209;-69
2022/03/17 11:21:27;;;;;;;5.70;2.23;;;12.80;99.90;;;;;;5011047;28;20216;-68
2022/03/17 11:24:07;;;;;;;6.97;2.27;;;12.90;99.90;;;;;;5001880;28;20255;-69
2022/03/17 11:26:44;;;;;;;4.43;2.20;;;12.80;99.90;;;;;;5006730;28;20538;-68
2022/03/17 11:29:17;;;;;;;4.13;2.37;;;13.00;99.90;;;;;;5006084;28;20207;-68
2022/03/17 11:31:52;;;;;;;3.27;2.30;;;13.00;99.90;;;;;;5009737;28;20192;-68
2022/03/17 11:34:42;;;;;;;3.50;1.93;;;13.10;99.90;;;;;;4992913;28;20649;-68
2022/03/17 11:37:20;;;;;;;2.33;1.83;;;13.10;99.90;;;;;;5008644;28;20273;-67
2022/03/17 11:39:49;;;;;;;4.77;2.00;;;13.10;99.90;;;;;;5008933;28;20220;-68
2022/03/17 11:42:33;;;;;;;6.90;2.13;;;13.00;99.90;;;;;;5007678;28;20193;-67
2022/03/17 11:45:34;;;;;;;2.97;1.80;;;12.90;99.90;;;;;;5007290;28;20207;-68
2022/03/17 11:48:07;;;;;;;3.47;2.10;;;12.90;99.90;;;;;;5003465;28;20224;-68
2022/03/17 11:50:40;;;;;;;9.17;3.00;;;12.80;99.90;;;;;;5021762;28;20196;-67
2022/03/17 11:53:14;;;;;;;4.07;2.23;;;12.80;99.90;;;;;;5007334;28;20211;-68
2022/03/17 11:55:46;;;;;;;4.97;2.57;;;12.70;99.90;;;;;;5002407;28;20189;-67
2022/03/17 11:58:33;;;;;;;3.30;2.30;;;12.70;99.90;;;;;;4996983;28;20576;-68
2022/03/17 12:01:34;;;;;;;4.37;2.30;;;12.70;99.90;;;;;;5009858;28;20247;-67
2022/03/17 12:04:04;;;;;;;6.40;2.90;;;12.60;99.90;;;;;;5004095;28;20659;-68
2022/03/17 12:06:41;;;;;;;4.07;2.70;;;12.60;99.90;;;;;;5005077;28;20208;-67
2022/03/17 12:09:12;;;;;;;6.00;2.43;;;12.50;99.90;;;;;;5018737;28;20197;-68
2022/03/17 12:11:47;;;;;;;4.17;2.50;;;12.50;99.90;;;;;;5009711;28;20189;-67
2022/03/17 12:16:58;;;;;;;7.63;2.70;;;12.50;99.90;;;;;;5007135;28;20189;-68
2022/03/17 12:19:48;;;;;;;13.30;3.37;;;12.40;99.90;;;;;;5023551;28;20193;-68
2022/03/17 12:22:37;;;;;;;5.03;2.47;;;12.30;99.90;;;;;;5007489;28;20264;-68
2022/03/17 12:25:16;;;;;;;12.33;3.83;;;12.20;99.90;;;;;;5005433;28;20198;-68
2022/03/17 12:27:48;;;;;;;5.80;2.50;;;12.20;99.90;;;;;;5005753;28;20195;-68
2022/03/17 12:30:17;;;;;;;2.70;2.17;;;12.10;99.90;;;;;;4997250;28;20201;-68
2022/03/17 12:32:54;;;;;;;2.93;2.00;;;12.00;99.90;;;;;;5003216;28;20193;-68
2022/03/17 12:35:34;;;;;;;4.30;2.27;;;12.00;99.90;;;;;;5001834;28;20202;-68
2022/03/17 12:38:08;;;;;;;3.70;2.37;;;12.00;99.90;;;;;;4999946;28;20264;-67
2022/03/17 12:40:47;;;;;;;3.33;2.03;;;12.00;99.90;;;;;;5005481;28;20283;-67
2022/03/17 12:43:18;;;;;;;3.07;2.03;;;11.90;99.90;;;;;;5004179;28;20189;-67
2022/03/17 12:45:47;;;;;;;4.07;2.17;;;11.90;99.90;;;;;;5023278;28;20219;-67
2022/03/17 12:48:16;;;;;;;5.17;2.30;;;11.90;99.90;;;;;;5007075;28;20213;-67
2022/03/17 12:50:44;;;;;;;3.50;2.20;;;11.90;99.90;;;;;;5023373;28;20197;-67
2022/03/17 12:53:10;;;;;;;6.60;2.50;;;11.90;99.90;;;;;;5008811;28;20220;-67
2022/03/17 12:55:37;;;;;;;4.07;2.40;;;11.80;99.90;;;;;;5008338;28;20800;-67
2022/03/17 12:58:04;;;;;;;5.93;2.70;;;11.80;99.90;;;;;;5008540;28;20193;-68
2022/03/17 13:00:32;;;;;;;5.23;2.60;;;11.80;99.90;;;;;;5006733;28;20240;-67
2022/03/17 13:03:01;;;;;;;6.83;2.37;;;11.70;99.90;;;;;;5009792;28;20177;-67
2022/03/17 13:08:16;;;;;;;2.70;2.13;;;11.60;99.90;;;;;;5007516;28;20188;-67
2022/03/17 13:16:15;;;;;;;4.43;2.73;;;11.50;99.90;;;;;;5008127;28;20279;-67
2022/03/17 13:18:49;;;;;;;6.50;3.20;;;11.40;99.90;;;;;;5007128;28;20200;-67
2022/03/17 13:21:23;;;;;;;8.50;3.00;;;11.30;99.90;;;;;;5024280;28;20212;-67
2022/03/17 13:23:52;;;;;;;4.83;2.60;;;11.30;99.90;;;;;;5008228;28;20277;-67
2022/03/17 13:26:23;;;;;;;8.63;2.97;;;11.20;99.90;;;;;;5008919;28;20208;-67
2022/03/17 13:29:04;;;;;;;7.20;3.80;;;11.10;99.90;;;;;;5008147;28;20189;-67
2022/03/17 13:31:45;;;;;;;6.97;3.37;;;11.10;99.90;;;;;;5007755;28;20207;-67
2022/03/17 13:34:36;;;;;;;8.97;3.50;;;11.10;99.90;;;;;;4995105;28;20194;-67
2022/03/17 13:37:11;;;;;;;6.63;3.53;;;11.00;99.90;;;;;;4993610;28;20270;-67
2022/03/17 13:39:38;;;;;;;6.13;3.57;;;11.00;99.90;;;;;;5008973;28;20220;-67
2022/03/17 13:42:07;;;;;;;9.40;3.73;;;;;;;;;;5006823;28;20196;-67
2022/03/17 13:44:52;;;;;;;6.20;3.63;;;;;;;;;;5006581;28;20753;-67
2022/03/17 13:47:22;;;;;;;9.60;3.10;;;;;;;;;;5008352;28;20688;-67
2022/03/17 13:50:07;;;;;;;4.30;3.23;;;;;;;;;;5007797;28;20294;-67
2022/03/17 13:52:34;;;;;;;5.73;2.90;;;;;;;;;;5006762;28;20214;-67
2022/03/17 13:55:01;;;;;;;6.20;2.90;;;;;;;;;;5008637;28;20231;-67
2022/03/17 13:57:27;;;;;;;4.90;3.37;;;;;;;;;;5007985;28;20200;-67
2022/03/17 13:59:54;;;;;;;4.70;3.10;;;;;;;;;;5007259;28;20235;-67
2022/03/17 14:02:24;;;;;;;6.00;3.20;;;;;;;;;;5008897;28;20208;-67
2022/03/17 14:04:55;;;;;;;8.67;3.77;;;;;;;;;;5007706;28;20557;-67
2022/03/17 14:07:22;;;;;;;6.67;3.47;;;;;;;;;;5023530;28;20287;-67
2022/03/17 14:09:49;;;;;;;6.50;3.20;;;;;;;;;;5008517;28;20736;-67
2022/03/17 14:12:16;;;;;;;6.17;3.30;;;;;;;;;;5007631;28;20192;-67
2022/03/17 14:14:43;;;;;;;4.27;3.33;;;;;;;;;;5008053;28;20280;-67
2022/03/17 14:17:10;;;;;;;5.33;3.50;;;;;;;;;;5023487;28;20197;-67
2022/03/17 14:19:37;;;;;;;3.93;3.30;;;;;;;;;;4987848;28;20201;-67
2022/03/17 14:24:49;;;;;;;6.77;3.30;;;;;;;;;;5013237;28;20188;-67
2022/03/17 14:27:16;;;;;;;8.43;3.53;;;;;;;;;;5027486;28;20322;-67
2022/03/17 14:29:42;;;;;;;6.77;3.10;;;;;;;;;;5011227;28;20184;-67
2022/03/17 14:32:09;;;;;;;6.37;3.70;;;;;;;;;;5012538;28;20192;-67
2022/03/17 14:34:35;;;;;;;4.07;3.47;;;;;;;;;;4991783;28;20207;-67
2022/03/17 14:37:03;;;;;;;5.13;3.60;;;;;;;;;;5008592;28;20251;-67
2022/03/17 14:39:30;;;;;;;9.27;3.57;;;;;;;;;;5011680;28;20323;-67
2022/03/17 14:41:57;;;;;;;8.50;4.13;;;;;;;;;;5012213;28;20200;-67
2022/03/17 14:44:23;;;;;;;5.57;3.50;;;;;;;;;;5027241;28;20188;-67
2022/03/17 14:46:51;;;;;;;7.50;3.60;;;;;;;;;;5012196;28;20535;-67
2022/03/17 14:49:18;;;;;;;5.80;3.33;;;;;;;;;;5010627;28;20320;-67